createdAt,value
2019-03-29T16:10:14.874Z,348.18
2019-03-29T16:11:17.344Z,356.88
2019-03-29T16:12:14.951Z,335.67
2019-03-29T16:13:14.804Z,340.68
2019-03-29T16:14:15.023Z,338.84
2019-03-29T16:15:14.817Z,353.89
2019-03-29T16:16:14.856Z,344.60
2019-03-29T16:17:14.883Z,344.59
2019-03-29T16:18:14.865Z,355.42
2019-03-29T16:19:14.817Z,351.85
2019-03-29T16:20:15.444Z,1.41
2019-03-29T16:21:14.880Z,2.84
2019-03-29T16:22:15.027Z,6.73
2019-03-29T16:23:15.051Z,10.47
2019-03-29T16:24:16.081Z,1.87
2019-03-29T16:25:15.054Z,343.74
2019-03-29T16:26:14.940Z,340.62
2019-03-29T16:27:14.986Z,353.98
2019-03-29T16:28:14.955Z,14.59
2019-03-29T16:29:14.980Z,19.19
2019-03-29T16:30:14.926Z,8.21
2019-03-29T16:31:14.871Z,3.44
2019-03-29T16:32:15.041Z,346.30
2019-03-29T16:33:15.973Z,349.73
2019-03-29T16:34:14.970Z,338.81
2019-03-29T16:35:15.145Z,338.48
2019-03-29T16:36:15.043Z,329.37
2019-03-29T16:37:16.568Z,359.40
2019-03-29T16:38:15.195Z,329.55
2019-03-29T16:39:15.056Z,325.08
2019-03-29T16:40:17.434Z,324.51
2019-03-29T16:41:15.012Z,315.00
2019-03-29T16:42:14.915Z,358.66
2019-03-29T16:43:15.027Z,349.50
2019-03-29T16:44:15.379Z,12.29
2019-03-29T16:45:15.092Z,20.25
2019-03-29T16:46:15.092Z,18.00
2019-03-29T16:47:15.003Z,344.59
2019-03-29T16:48:15.344Z,25.43
2019-03-29T16:49:15.118Z,3.21
2019-03-29T16:50:15.010Z,348.95
2019-03-29T16:51:14.983Z,5.07
2019-03-29T16:52:15.074Z,35.19
2019-03-29T16:53:15.072Z,30.94
2019-03-29T16:54:15.071Z,19.93
2019-03-29T16:55:15.148Z,354.21
2019-03-29T16:56:15.217Z,347.62
2019-03-29T16:57:14.981Z,343.83
2019-03-29T16:58:15.297Z,345.97
2019-03-29T16:59:14.896Z,340.88
2019-03-29T17:00:15.340Z,350.15
2019-03-29T17:01:14.969Z,351.63
2019-03-29T17:02:15.125Z,356.59
2019-03-29T17:03:15.178Z,352.05
2019-03-29T17:04:15.041Z,350.68
2019-03-29T17:05:15.321Z,352.68
2019-03-29T17:06:15.276Z,345.66
2019-03-29T17:07:15.091Z,340.76
2019-03-29T17:08:15.113Z,348.71
2019-03-29T17:09:15.157Z,341.08
2019-03-29T17:10:15.128Z,355.67
2019-03-29T17:11:15.141Z,355.65
2019-03-29T17:12:15.054Z,357.33
2019-03-29T17:13:14.987Z,337.78
2019-03-29T17:14:15.040Z,324.03
2019-03-29T17:15:15.476Z,348.31
2019-03-29T17:16:14.921Z,338.29
2019-03-29T17:17:15.222Z,357.98
2019-03-29T17:18:28.569Z,341.49
2019-03-29T17:19:15.304Z,349.02
2019-03-29T17:20:14.916Z,352.76
2019-03-29T17:21:15.111Z,347.78
2019-03-29T17:22:15.047Z,351.32
2019-03-29T17:23:15.387Z,334.75
2019-03-29T17:24:14.966Z,346.17
2019-03-29T17:25:14.965Z,351.96
2019-03-29T17:26:15.110Z,349.67
2019-03-29T17:27:15.017Z,330.70
2019-03-29T17:28:15.332Z,354.98
2019-03-29T17:29:14.991Z,328.86
2019-03-29T17:30:15.011Z,322.82
2019-03-29T17:31:15.080Z,353.73
2019-03-29T17:32:14.971Z,322.83
2019-03-29T17:33:15.204Z,338.92
2019-03-29T17:34:15.067Z,335.01
2019-03-29T17:35:15.083Z,322.35
2019-03-29T17:36:15.196Z,340.76
2019-03-29T17:37:15.090Z,341.24
2019-03-29T17:38:15.048Z,344.73
2019-03-29T17:39:15.095Z,1.64
2019-03-29T17:40:15.021Z,340.42
2019-03-29T17:41:15.070Z,333.73
2019-03-29T17:42:15.077Z,335.91
2019-03-29T17:43:15.344Z,336.51
2019-03-29T17:44:15.143Z,331.16
2019-03-29T17:45:15.051Z,327.70
2019-03-29T17:46:16.286Z,13.98
2019-03-29T17:47:15.134Z,345.80
2019-03-29T17:48:15.069Z,346.79
2019-03-29T17:49:15.203Z,339.24
2019-03-29T17:50:15.218Z,340.11
2019-03-29T17:51:14.999Z,15.88
2019-03-29T17:52:15.182Z,15.85
2019-03-29T17:53:15.121Z,8.89
2019-03-29T17:54:14.996Z,19.09
2019-03-29T17:55:15.078Z,19.08
2019-03-29T17:56:15.021Z,321.06
2019-03-29T17:57:15.265Z,328.60
2019-03-29T17:58:15.108Z,0.70
2019-03-29T17:59:15.034Z,338.68
2019-03-29T18:00:15.084Z,340.42
2019-03-29T18:01:17.746Z,328.77
2019-03-29T18:02:15.113Z,345.87
2019-03-29T18:03:15.121Z,346.23
2019-03-29T18:04:15.120Z,315.86
2019-03-29T18:05:15.420Z,322.27
2019-03-29T18:06:15.120Z,340.84
2019-03-29T18:07:15.322Z,327.75
2019-03-29T18:08:15.129Z,13.33
2019-03-29T18:09:15.215Z,3.05
2019-03-29T18:10:14.988Z,7.84
2019-03-29T18:11:15.216Z,11.54
2019-03-29T18:12:15.409Z,11.12
2019-03-29T18:13:15.188Z,1.50
2019-03-29T18:14:15.095Z,16.77
2019-03-29T18:15:15.047Z,137.72
2019-03-29T18:16:29.580Z,15.92
2019-03-29T18:17:15.290Z,50.00
2019-03-29T18:18:15.232Z,4.06
2019-03-29T18:19:15.000Z,228.90
2019-03-29T18:20:15.102Z,317.09
2019-03-29T18:21:14.994Z,279.98
2019-03-29T18:22:15.204Z,115.25
2019-03-29T18:23:15.293Z,49.27
2019-03-29T18:24:15.130Z,43.98
2019-03-29T18:25:15.179Z,356.93
2019-03-29T18:26:15.035Z,316.34
2019-03-29T18:27:15.254Z,309.65
2019-03-29T18:28:15.070Z,279.73
2019-03-29T18:29:15.198Z,356.55
2019-03-29T18:30:14.986Z,315.00
2019-03-29T18:31:15.095Z,304.65
2019-03-29T18:32:15.176Z,315.00
2019-03-29T18:33:15.183Z,315.00
2019-03-29T18:34:16.134Z,352.67
2019-03-29T18:35:15.001Z,350.24
2019-03-29T18:36:15.262Z,317.26
2019-03-29T18:37:15.471Z,315.00
2019-03-29T18:38:15.209Z,252.19
2019-03-29T18:39:15.150Z,311.59
2019-03-29T18:40:15.201Z,320.39
2019-03-29T18:41:15.177Z,225.00
2019-03-29T18:42:15.207Z,314.53
2019-03-29T18:43:15.205Z,278.51
2019-03-29T18:44:15.221Z,331.43
2019-03-29T18:45:15.182Z,355.20
2019-03-29T18:46:15.304Z,271.67
2019-03-29T18:47:15.331Z,270.00
2019-03-29T18:48:15.128Z,270.00
2019-03-29T18:49:15.326Z,302.07
2019-03-29T18:50:15.339Z,315.00
2019-03-29T18:51:15.204Z,315.00
2019-03-29T18:52:15.343Z,315.00
2019-03-29T18:53:15.267Z,315.00
2019-03-29T18:54:15.365Z,315.00
2019-03-29T18:55:15.222Z,303.66
2019-03-29T18:56:15.422Z,312.10
2019-03-29T18:57:15.331Z,315.00
2019-03-29T18:58:15.655Z,315.00
2019-03-29T18:59:15.401Z,309.28
2019-03-29T19:00:15.378Z,319.12
2019-03-29T19:01:15.470Z,292.02
2019-03-29T19:02:15.680Z,293.97
2019-03-29T19:03:18.040Z,262.68
2019-03-29T19:04:15.518Z,292.21
2019-03-29T19:05:15.544Z,311.78
2019-03-29T19:06:15.326Z,288.91
2019-03-29T19:07:15.669Z,313.16
2019-03-29T19:08:15.415Z,305.59
2019-03-29T19:09:15.466Z,320.87
2019-03-29T19:10:15.522Z,321.39
2019-03-29T19:11:15.367Z,315.00
2019-03-29T19:12:15.364Z,315.00
2019-03-29T19:13:15.554Z,315.00
2019-03-29T19:14:15.434Z,278.18
2019-03-29T19:15:15.390Z,268.16
2019-03-29T19:16:15.487Z,282.69
2019-03-29T19:17:15.611Z,286.46
2019-03-29T19:18:16.605Z,284.36
2019-03-29T19:19:15.471Z,229.29
2019-03-29T19:20:26.563Z,225.00
2019-03-29T19:21:15.439Z,241.42
2019-03-29T19:22:15.732Z,270.00
2019-03-29T19:23:15.475Z,270.00
2019-03-29T19:24:15.469Z,270.00
2019-03-29T19:25:15.511Z,269.31
2019-03-29T19:26:15.454Z,241.61
2019-03-29T19:27:15.565Z,274.94
2019-03-29T19:28:15.633Z,270.00
2019-03-29T19:29:15.665Z,270.00
2019-03-29T19:30:15.494Z,270.00
2019-03-29T19:31:15.576Z,270.00
2019-03-29T19:32:15.441Z,270.00
2019-03-29T19:33:15.690Z,270.00
2019-03-29T19:34:15.534Z,270.00
2019-03-29T19:35:15.536Z,270.00
2019-03-29T19:36:15.470Z,270.00
2019-03-29T19:37:18.222Z,277.87
2019-03-29T19:38:15.589Z,348.64
2019-03-29T19:39:15.651Z,306.96
2019-03-29T19:40:15.786Z,312.37
2019-03-29T19:41:15.454Z,321.29
2019-03-29T19:42:16.834Z,254.16
2019-03-29T19:43:15.452Z,277.90
2019-03-29T19:44:15.474Z,312.16
2019-03-29T19:45:15.442Z,225.00
2019-03-29T19:46:15.652Z,258.42
2019-03-29T19:47:15.532Z,268.81
2019-03-29T19:48:15.460Z,225.00
2019-03-29T19:49:15.533Z,304.78
2019-03-29T19:50:15.682Z,278.03
2019-03-29T19:51:15.646Z,263.11
2019-03-29T19:52:15.613Z,301.97
2019-03-29T19:53:15.595Z,271.53
2019-03-29T19:54:15.431Z,312.65
2019-03-29T19:55:15.466Z,310.86
2019-03-29T19:56:15.770Z,270.00
2019-03-29T19:57:15.568Z,270.00
2019-03-29T19:58:15.504Z,270.00
2019-03-29T19:59:15.507Z,270.00
2019-03-29T20:00:15.495Z,270.00
2019-03-29T20:01:15.706Z,270.00
2019-03-29T20:02:15.648Z,270.00
2019-03-29T20:03:15.649Z,270.00
2019-03-29T20:04:15.508Z,269.82
2019-03-29T20:05:15.738Z,286.67
2019-03-29T20:06:15.638Z,256.93
2019-03-29T20:07:15.478Z,283.18
2019-03-29T20:08:15.755Z,270.00
2019-03-29T20:09:15.553Z,294.43
2019-03-29T20:10:15.481Z,313.50
2019-03-29T20:11:15.999Z,260.01
2019-03-29T20:12:15.679Z,247.10
2019-03-29T20:13:15.876Z,273.68
2019-03-29T20:14:15.604Z,315.00
2019-03-29T20:15:15.722Z,225.00
2019-03-29T20:16:15.498Z,298.16
2019-03-29T20:17:27.004Z,315.00
2019-03-29T20:18:15.508Z,279.39
2019-03-29T20:19:15.514Z,300.20
2019-03-29T20:20:15.530Z,314.57
2019-03-29T20:21:15.477Z,302.04
2019-03-29T20:22:16.290Z,270.00
2019-03-29T20:23:15.674Z,270.00
2019-03-29T20:24:15.606Z,270.00
2019-03-29T20:25:15.497Z,270.00
2019-03-29T20:26:15.750Z,284.73
2019-03-29T20:27:15.540Z,271.39
2019-03-29T20:28:15.639Z,270.00
2019-03-29T20:29:15.482Z,282.32
2019-03-29T20:30:17.812Z,282.47
2019-03-29T20:31:15.469Z,265.98
2019-03-29T20:32:15.671Z,237.21
2019-03-29T20:33:15.648Z,225.09
2019-03-29T20:34:15.611Z,270.00
2019-03-29T20:35:15.727Z,232.01
2019-03-29T20:36:22.773Z,231.59
2019-03-29T20:37:15.715Z,225.00
2019-03-29T20:38:15.525Z,225.00
2019-03-29T20:39:15.593Z,231.40
2019-03-29T20:40:15.556Z,225.00
2019-03-29T20:41:15.604Z,222.03
2019-03-29T20:42:15.624Z,203.93
2019-03-29T20:43:15.549Z,233.93
2019-03-29T20:44:15.580Z,225.00
2019-03-29T20:45:15.838Z,260.38
2019-03-29T20:46:15.765Z,310.11
2019-03-29T20:47:15.957Z,311.50
2019-03-29T20:48:15.759Z,249.52
2019-03-29T20:49:15.865Z,262.11
2019-03-29T20:50:15.607Z,246.14
2019-03-29T20:51:15.576Z,244.54
2019-03-29T20:52:16.090Z,284.38
2019-03-29T20:53:15.590Z,280.17
2019-03-29T20:54:15.792Z,227.93
2019-03-29T20:55:15.708Z,248.14
2019-03-29T20:56:16.162Z,223.93
2019-03-29T20:57:15.665Z,135.00
2019-03-29T20:58:15.729Z,145.39
2019-03-29T20:59:16.673Z,135.00
2019-03-29T21:00:15.738Z,166.29
2019-03-29T21:01:15.595Z,158.89
2019-03-29T21:02:15.622Z,180.00
2019-03-29T21:03:15.683Z,164.13
2019-03-29T21:04:15.873Z,165.44
2019-03-29T21:05:16.015Z,148.00
2019-03-29T21:06:15.644Z,161.13
2019-03-29T21:07:15.677Z,134.93
2019-03-29T21:08:15.877Z,135.00
2019-03-29T21:09:15.956Z,135.00
2019-03-29T21:10:15.621Z,137.44
2019-03-29T21:11:16.598Z,135.00
2019-03-29T21:12:15.730Z,143.85
2019-03-29T21:13:15.650Z,135.00
2019-03-29T21:14:15.652Z,137.13
2019-03-29T21:15:15.639Z,137.08
2019-03-29T21:16:15.628Z,150.00
2019-03-29T21:17:15.684Z,148.24
2019-03-29T21:18:17.427Z,176.85
2019-03-29T21:19:15.975Z,176.63
2019-03-29T21:20:15.744Z,177.61
2019-03-29T21:21:15.657Z,196.00
2019-03-29T21:22:15.753Z,180.00
2019-03-29T21:23:15.732Z,180.00
2019-03-29T21:24:15.693Z,180.00
2019-03-29T21:25:15.715Z,180.00
2019-03-29T21:26:16.027Z,185.68
2019-03-29T21:27:15.763Z,155.38
2019-03-29T21:28:15.808Z,199.26
2019-03-29T21:29:18.214Z,180.00
2019-03-29T21:30:15.980Z,180.00
2019-03-29T21:31:15.734Z,216.15
2019-03-29T21:32:16.310Z,275.88
2019-03-29T21:33:15.931Z,228.26
2019-03-29T21:34:15.648Z,247.09
2019-03-29T21:35:15.708Z,249.46
2019-03-29T21:36:18.108Z,225.00
2019-03-29T21:37:15.702Z,225.00
2019-03-29T21:38:15.792Z,205.39
2019-03-29T21:39:15.829Z,180.00
2019-03-29T21:40:15.688Z,180.00
2019-03-29T21:41:15.848Z,180.00
2019-03-29T21:42:15.858Z,191.66
2019-03-29T21:43:15.795Z,225.00
2019-03-29T21:44:16.838Z,191.36
2019-03-29T21:45:28.107Z,180.00
2019-03-29T21:46:15.754Z,180.00
2019-03-29T21:47:17.691Z,180.00
2019-03-29T21:48:27.253Z,149.28
2019-03-29T21:49:15.882Z,143.90
2019-03-29T21:50:15.662Z,150.81
2019-03-29T21:51:18.208Z,134.38
2019-03-29T21:52:15.959Z,135.00
2019-03-29T21:53:15.726Z,135.00
2019-03-29T21:54:15.676Z,135.00
2019-03-29T21:55:15.889Z,135.00
2019-03-29T21:56:16.027Z,134.99
2019-03-29T21:57:15.868Z,135.00
2019-03-29T21:58:16.417Z,135.00
2019-03-29T21:59:15.759Z,137.66
2019-03-29T22:00:15.720Z,135.00
